createdAt,value
2023-01-25T00:00:15.353Z,93.67
2023-01-25T00:05:17.824Z,102.13
2023-01-25T00:10:20.469Z,124.67
2023-01-25T00:15:24.437Z,120.07
2023-01-25T00:20:27.023Z,101.60
2023-01-25T00:25:29.999Z,101.10
2023-01-25T00:30:35.155Z,91.40
2023-01-25T00:35:38.787Z,90.60
2023-01-25T00:40:41.172Z,89.37
2023-01-25T00:45:43.560Z,84.23
2023-01-25T00:50:46.051Z,89.27
2023-01-25T00:55:52.713Z,95.00
2023-01-25T01:00:56.390Z,97.70
2023-01-25T01:06:01.750Z,98.53
2023-01-25T01:11:06.834Z,110.73
2023-01-25T01:16:13.158Z,101.33
2023-01-25T01:21:15.591Z,109.10
2023-01-25T01:26:22.063Z,104.63
2023-01-25T01:31:24.952Z,102.67
2023-01-25T01:36:39.645Z,104.00
2023-01-25T01:41:42.190Z,92.87
2023-01-25T01:46:57.416Z,98.83
2023-01-25T01:52:12.564Z,99.57
2023-01-25T01:57:20.147Z,94.10
2023-01-25T02:02:26.292Z,108.77
2023-01-25T02:07:36.305Z,106.03
2023-01-25T02:12:39.549Z,94.57
2023-01-25T02:17:43.598Z,87.67
2023-01-25T02:23:08.550Z,92.17
2023-01-25T02:28:17.297Z,97.07
2023-01-25T02:33:22.972Z,87.87
2023-01-25T02:38:25.723Z,90.60
2023-01-25T02:43:32.741Z,83.10
2023-01-25T02:48:37.453Z,82.43
2023-01-25T02:53:41.982Z,94.17
2023-01-25T02:58:45.007Z,95.17
2023-01-25T03:03:47.478Z,83.90
2023-01-25T03:08:50.175Z,91.00
2023-01-25T03:13:52.931Z,84.90
2023-01-25T03:18:56.537Z,86.23
2023-01-25T03:24:01.926Z,100.27
2023-01-25T03:29:11.483Z,90.47
2023-01-25T03:34:17.373Z,97.30
2023-01-25T03:39:19.855Z,99.83
2023-01-25T03:44:22.401Z,89.97
2023-01-25T03:49:25.527Z,95.27
2023-01-25T03:54:28.898Z,90.17
2023-01-25T03:59:31.390Z,95.10
2023-01-25T04:04:35.779Z,89.60
2023-01-25T04:09:39.309Z,92.83
2023-01-25T04:14:44.933Z,93.57
2023-01-25T04:19:54.636Z,97.17
2023-01-25T04:25:02.196Z,101.03
2023-01-25T04:30:05.801Z,94.40
2023-01-25T04:35:11.615Z,89.83
2023-01-25T04:40:14.303Z,86.60
2023-01-25T04:45:21.008Z,87.10
2023-01-25T04:50:23.916Z,98.17
2023-01-25T04:55:26.393Z,95.47
2023-01-25T05:00:33.482Z,86.77
2023-01-25T05:05:37.810Z,96.40
2023-01-25T05:10:46.273Z,106.17
2023-01-25T05:16:06.767Z,93.77
2023-01-25T05:21:30.171Z,88.03
2023-01-25T05:26:51.329Z,98.47
2023-01-25T05:31:55.029Z,84.73
2023-01-25T05:36:58.053Z,80.27
2023-01-25T05:42:00.654Z,70.43
2023-01-25T05:47:06.372Z,70.33
2023-01-25T05:52:14.528Z,71.67
2023-01-25T05:57:18.351Z,71.10
2023-01-25T06:02:21.325Z,81.13
2023-01-25T06:07:24.825Z,85.37
2023-01-25T06:12:29.361Z,80.57
2023-01-25T06:17:33.398Z,72.73
2023-01-25T06:22:58.569Z,67.63
2023-01-25T06:28:01.117Z,72.03
2023-01-25T06:33:03.922Z,79.27
2023-01-25T06:38:06.616Z,81.20
2023-01-25T06:43:10.803Z,79.40
2023-01-25T06:48:13.830Z,77.10
2023-01-25T06:53:16.267Z,76.53
2023-01-25T06:58:18.665Z,74.53
2023-01-25T07:03:21.156Z,69.70
2023-01-25T07:08:23.537Z,72.30
2023-01-25T07:13:27.039Z,119.00
2023-01-25T07:18:30.425Z,118.53
2023-01-25T07:23:34.570Z,195.63
2023-01-25T07:28:36.937Z,156.80
2023-01-25T07:33:39.886Z,167.93
2023-01-25T07:38:42.273Z,171.07
2023-01-25T07:43:44.720Z,145.87
2023-01-25T07:48:51.629Z,144.47
2023-01-25T07:54:02.064Z,128.87
2023-01-25T07:59:04.989Z,89.37
2023-01-25T08:04:07.986Z,75.70
2023-01-25T08:09:20.113Z,76.63
2023-01-25T08:14:22.722Z,80.73
2023-01-25T08:19:26.805Z,80.47
2023-01-25T08:24:29.202Z,90.87
2023-01-25T08:29:31.680Z,58.47
2023-01-25T08:34:37.518Z,67.70
2023-01-25T08:39:39.955Z,70.03
2023-01-25T08:44:42.281Z,69.40
2023-01-25T08:49:44.672Z,63.07
2023-01-25T08:54:47.096Z,55.83
2023-01-25T08:59:49.460Z,41.83
2023-01-25T09:04:51.819Z,49.13
2023-01-25T09:09:54.158Z,55.00
2023-01-25T09:14:56.507Z,137.03
2023-01-25T09:19:58.912Z,88.63
2023-01-25T09:25:01.228Z,48.43
2023-01-25T09:30:10.905Z,38.57
2023-01-25T09:35:17.073Z,32.90
2023-01-25T09:40:22.768Z,73.17
2023-01-25T09:45:34.220Z,74.90
2023-01-25T09:50:36.788Z,51.07
2023-01-25T09:55:40.258Z,28.77
2023-01-25T10:00:48.183Z,26.77
2023-01-25T10:05:54.027Z,33.07
2023-01-25T10:11:21.464Z,31.03
2023-01-25T10:16:44.250Z,40.33
2023-01-25T10:21:54.496Z,38.93
2023-01-25T10:27:02.274Z,35.23
2023-01-25T10:32:25.243Z,41.70
2023-01-25T10:37:31.285Z,47.07
2023-01-25T10:42:41.418Z,63.73
2023-01-25T10:47:51.458Z,37.47
2023-01-25T10:52:59.903Z,62.40
2023-01-25T10:58:02.317Z,49.27
2023-01-25T11:03:05.534Z,41.27
2023-01-25T11:08:32.711Z,82.03
2023-01-25T11:13:35.151Z,36.10
2023-01-25T11:18:37.544Z,48.27
2023-01-25T11:23:40.323Z,63.50
2023-01-25T11:28:44.828Z,44.90
2023-01-25T11:33:47.407Z,60.67
2023-01-25T11:39:29.148Z,50.50
2023-01-25T11:44:56.370Z,67.60
2023-01-25T11:50:21.786Z,49.77
2023-01-25T11:55:37.422Z,41.23
2023-01-25T12:00:43.760Z,43.00
2023-01-25T12:06:17.172Z,37.43
2023-01-25T12:11:40.587Z,64.57
2023-01-25T12:17:19.072Z,84.27
2023-01-25T12:22:27.300Z,71.80
2023-01-25T12:27:49.881Z,68.30
2023-01-25T12:33:08.866Z,63.90
2023-01-25T12:38:38.295Z,84.70
2023-01-25T12:43:48.731Z,54.20
2023-01-25T12:48:56.238Z,76.57
2023-01-25T12:54:00.579Z,65.00
2023-01-25T12:59:23.635Z,102.57
2023-01-25T13:04:53.206Z,55.87
2023-01-25T13:10:03.110Z,78.57
2023-01-25T13:15:35.281Z,83.87
2023-01-25T13:20:40.414Z,128.23
2023-01-25T13:25:42.797Z,134.30
2023-01-25T13:30:53.318Z,78.17
2023-01-25T13:35:55.733Z,74.33
2023-01-25T13:41:12.323Z,87.17
2023-01-25T13:46:18.006Z,107.73
2023-01-25T13:51:21.939Z,113.40
2023-01-25T13:56:30.901Z,128.73
2023-01-25T14:01:35.660Z,69.63
2023-01-25T14:06:40.795Z,70.20
2023-01-25T14:11:55.181Z,281.70
2023-01-25T14:17:16.137Z,99.07
2023-01-25T14:22:30.201Z,106.33
2023-01-25T14:27:34.978Z,107.60
2023-01-25T14:32:37.431Z,92.93
2023-01-25T14:37:42.754Z,129.27
2023-01-25T14:42:45.338Z,113.50
2023-01-25T14:47:58.339Z,96.77
2023-01-25T14:53:21.611Z,93.27
2023-01-25T14:58:25.951Z,73.40
2023-01-25T15:03:31.210Z,69.27
2023-01-25T15:08:39.024Z,63.30
2023-01-25T15:13:41.376Z,124.90
2023-01-25T15:19:01.568Z,83.23
2023-01-25T15:24:11.681Z,164.40
2023-01-25T15:29:15.126Z,63.00
2023-01-25T15:34:25.030Z,75.67
2023-01-25T15:39:28.772Z,82.33
2023-01-25T15:44:31.370Z,113.13
2023-01-25T15:49:37.446Z,64.50
2023-01-25T15:54:42.283Z,112.30
2023-01-25T15:59:48.470Z,57.93
2023-01-25T16:04:59.421Z,104.53
2023-01-25T16:10:02.218Z,89.53
2023-01-25T16:15:05.672Z,88.10
2023-01-25T16:20:15.577Z,108.37
2023-01-25T16:25:30.345Z,80.23
2023-01-25T16:30:34.530Z,116.57
2023-01-25T16:35:37.134Z,104.17
2023-01-25T16:40:39.893Z,96.10
2023-01-25T16:45:42.266Z,73.97
2023-01-25T16:50:44.594Z,80.33
2023-01-25T16:55:48.228Z,96.13
2023-01-25T17:00:51.064Z,105.70
2023-01-25T17:05:53.607Z,117.50
2023-01-25T17:10:57.500Z,139.90
2023-01-25T17:16:00.986Z,83.33
2023-01-25T17:21:06.462Z,144.07
2023-01-25T17:26:12.093Z,153.00
2023-01-25T17:31:16.638Z,100.47
2023-01-25T17:36:19.895Z,108.57
2023-01-25T17:41:22.313Z,128.63
2023-01-25T17:46:29.765Z,121.50
2023-01-25T17:51:34.223Z,136.63
2023-01-25T17:56:39.386Z,145.37
2023-01-25T18:01:45.016Z,143.17
2023-01-25T18:06:47.493Z,154.13
2023-01-25T18:11:49.922Z,155.87
2023-01-25T18:16:52.582Z,133.67
2023-01-25T18:21:54.911Z,163.00
2023-01-25T18:27:03.714Z,138.60
2023-01-25T18:32:06.668Z,147.43
2023-01-25T18:37:17.972Z,173.17
2023-01-25T18:42:21.857Z,176.87
2023-01-25T18:47:24.410Z,175.20
2023-01-25T18:52:27.248Z,163.17
2023-01-25T18:57:29.629Z,157.77
2023-01-25T19:02:32.059Z,221.00
2023-01-25T19:07:34.506Z,192.07
2023-01-25T19:12:36.858Z,207.17
2023-01-25T19:17:39.219Z,202.50
2023-01-25T19:22:42.038Z,188.23
2023-01-25T19:27:44.992Z,186.23
2023-01-25T19:32:47.323Z,177.97
2023-01-25T19:37:49.621Z,174.63
2023-01-25T19:42:51.971Z,178.00
2023-01-25T19:47:54.323Z,206.87
2023-01-25T19:52:56.718Z,123.20
2023-01-25T19:57:59.133Z,86.93
2023-01-25T20:03:14.961Z,82.93
2023-01-25T20:08:18.558Z,81.43
2023-01-25T20:13:20.935Z,74.70
2023-01-25T20:18:23.999Z,71.93
2023-01-25T20:23:27.300Z,91.20
2023-01-25T20:28:29.632Z,96.63
2023-01-25T20:33:33.536Z,82.50
2023-01-25T20:38:37.365Z,133.93
2023-01-25T20:43:40.643Z,142.57
2023-01-25T20:48:43.345Z,133.17
2023-01-25T20:53:46.510Z,137.83
2023-01-25T20:58:52.937Z,133.43
2023-01-25T21:03:56.952Z,163.53
2023-01-25T21:08:59.393Z,155.77
2023-01-25T21:14:01.813Z,169.27
2023-01-25T21:19:06.472Z,152.00
2023-01-25T21:24:09.586Z,149.00
2023-01-25T21:29:11.994Z,160.07
2023-01-25T21:34:14.462Z,173.67
2023-01-25T21:39:16.810Z,144.37
2023-01-25T21:44:37.694Z,142.10
2023-01-25T21:49:58.954Z,121.73
2023-01-25T21:55:01.531Z,142.37
2023-01-25T22:00:05.480Z,312.80
2023-01-25T22:05:08.105Z,540.77
2023-01-25T22:10:11.281Z,169.07
2023-01-25T22:15:13.812Z,161.80
2023-01-25T22:20:16.505Z,277.30
2023-01-25T22:25:18.914Z,156.73
2023-01-25T22:30:21.247Z,226.23
2023-01-25T22:35:23.651Z,162.80
2023-01-25T22:40:26.053Z,148.17
2023-01-25T22:45:28.404Z,181.00
2023-01-25T22:50:31.327Z,169.13
2023-01-25T22:55:33.649Z,119.83
2023-01-25T23:00:37.631Z,111.37
2023-01-25T23:05:39.923Z,112.47
2023-01-25T23:10:42.211Z,111.00
2023-01-25T23:15:44.569Z,201.73
2023-01-25T23:20:46.928Z,164.30
2023-01-25T23:25:49.371Z,107.57
2023-01-25T23:30:51.717Z,116.07
2023-01-25T23:35:54.167Z,90.17
2023-01-25T23:41:01.312Z,89.17
2023-01-25T23:46:03.893Z,81.03
2023-01-25T23:51:06.545Z,89.03
2023-01-25T23:56:13.925Z,77.20
